Terminal Aerodrome Forecast
Issued by NWS

Home | Current Version | Previous Version | Text Only | Print | Product List | Glossary On
Versions: 1 2 3 4 5 6 7 8 9 10 11 12
000
FTUS42 KMLB 171738
TAFTIX
TAF
KTIX 171738Z 1718/1818 30010KT P6SM SKC
     FM172100 33010KT P6SM SCT015 SCT030
     FM180000 31010KT P6SM SKC
     FM181500 35009KT P6SM SKC=

USA.gov is the U.S. government's official web portal to all federal, state and local government web resources and services.